sensor_id;sensor_type;location;lat;lon;timestamp;temperature;humidity
68217;DHT22;55037;52.354;4.992;2023-02-28T00:01:13;7.70;63.70
68217;DHT22;55037;52.354;4.992;2023-02-28T00:03:41;7.70;63.80
68217;DHT22;55037;52.354;4.992;2023-02-28T00:06:09;7.70;63.80
68217;DHT22;55037;52.354;4.992;2023-02-28T00:08:37;7.70;63.80
68217;DHT22;55037;52.354;4.992;2023-02-28T00:11:08;7.70;63.80
68217;DHT22;55037;52.354;4.992;2023-02-28T00:13:38;7.70;63.90
68217;DHT22;55037;52.354;4.992;2023-02-28T00:16:11;7.70;63.80
68217;DHT22;55037;52.354;4.992;2023-02-28T00:18:39;7.70;63.90
68217;DHT22;55037;52.354;4.992;2023-02-28T00:21:06;7.80;64.00
68217;DHT22;55037;52.354;4.992;2023-02-28T00:23:34;7.80;64.00
68217;DHT22;55037;52.354;4.992;2023-02-28T00:26:02;7.80;63.30
68217;DHT22;55037;52.354;4.992;2023-02-28T00:28:30;7.80;64.10
68217;DHT22;55037;52.354;4.992;2023-02-28T00:30:59;7.80;64.10
68217;DHT22;55037;52.354;4.992;2023-02-28T00:33:28;7.70;64.30
68217;DHT22;55037;52.354;4.992;2023-02-28T00:36:10;7.70;63.90
68217;DHT22;55037;52.354;4.992;2023-02-28T00:38:40;7.70;64.80
68217;DHT22;55037;52.354;4.992;2023-02-28T00:41:08;7.70;64.80
68217;DHT22;55037;52.354;4.992;2023-02-28T00:43:37;7.60;64.90
68217;DHT22;55037;52.354;4.992;2023-02-28T00:46:05;7.60;65.10
68217;DHT22;55037;52.354;4.992;2023-02-28T00:48:33;7.60;65.40
68217;DHT22;55037;52.354;4.992;2023-02-28T00:51:01;7.60;65.50
68217;DHT22;55037;52.354;4.992;2023-02-28T00:53:28;7.70;65.70
68217;DHT22;55037;52.354;4.992;2023-02-28T00:55:57;7.70;65.90
68217;DHT22;55037;52.354;4.992;2023-02-28T00:58:26;7.70;65.80
68217;DHT22;55037;52.354;4.992;2023-02-28T01:00:53;7.70;65.80
68217;DHT22;55037;52.354;4.992;2023-02-28T01:03:21;7.70;65.90
68217;DHT22;55037;52.354;4.992;2023-02-28T01:05:49;7.70;65.80
68217;DHT22;55037;52.354;4.992;2023-02-28T01:08:17;7.80;65.90
68217;DHT22;55037;52.354;4.992;2023-02-28T01:10:44;7.80;65.90
68217;DHT22;55037;52.354;4.992;2023-02-28T01:13:12;7.80;65.80
68217;DHT22;55037;52.354;4.992;2023-02-28T01:15:49;7.80;65.90
68217;DHT22;55037;52.354;4.992;2023-02-28T01:18:19;7.80;66.20
68217;DHT22;55037;52.354;4.992;2023-02-28T01:20:47;7.70;66.00
68217;DHT22;55037;52.354;4.992;2023-02-28T01:23:15;7.80;66.10
68217;DHT22;55037;52.354;4.992;2023-02-28T01:25:42;7.80;66.00
68217;DHT22;55037;52.354;4.992;2023-02-28T01:28:10;7.80;66.00
68217;DHT22;55037;52.354;4.992;2023-02-28T01:30:37;7.80;66.00
68217;DHT22;55037;52.354;4.992;2023-02-28T01:33:06;7.80;66.30
68217;DHT22;55037;52.354;4.992;2023-02-28T01:35:34;7.80;66.20
68217;DHT22;55037;52.354;4.992;2023-02-28T01:38:02;7.80;66.30
68217;DHT22;55037;52.354;4.992;2023-02-28T01:40:47;7.90;66.30
68217;DHT22;55037;52.354;4.992;2023-02-28T01:43:23;7.90;66.30
68217;DHT22;55037;52.354;4.992;2023-02-28T01:45:53;7.90;66.60
68217;DHT22;55037;52.354;4.992;2023-02-28T01:48:27;7.90;66.70
68217;DHT22;55037;52.354;4.992;2023-02-28T01:50:56;7.90;66.80
68217;DHT22;55037;52.354;4.992;2023-02-28T01:53:32;7.90;67.80
68217;DHT22;55037;52.354;4.992;2023-02-28T01:56:04;7.90;67.10
68217;DHT22;55037;52.354;4.992;2023-02-28T01:58:33;7.90;67.10
68217;DHT22;55037;52.354;4.992;2023-02-28T02:01:01;7.90;67.10
68217;DHT22;55037;52.354;4.992;2023-02-28T02:03:30;7.90;67.10
68217;DHT22;55037;52.354;4.992;2023-02-28T02:05:58;8.00;66.70
68217;DHT22;55037;52.354;4.992;2023-02-28T02:08:26;8.00;67.50
68217;DHT22;55037;52.354;4.992;2023-02-28T02:10:58;8.00;67.40
68217;DHT22;55037;52.354;4.992;2023-02-28T02:13:52;8.00;67.40
68217;DHT22;55037;52.354;4.992;2023-02-28T02:33:21;8.10;67.00
68217;DHT22;55037;52.354;4.992;2023-02-28T02:38:45;8.10;66.90
68217;DHT22;55037;52.354;4.992;2023-02-28T02:43:55;8.00;66.90
68217;DHT22;55037;52.354;4.992;2023-02-28T02:46:34;8.00;67.10
68217;DHT22;55037;52.354;4.992;2023-02-28T02:49:08;8.00;67.30
68217;DHT22;55037;52.354;4.992;2023-02-28T02:51:36;8.00;67.30
68217;DHT22;55037;52.354;4.992;2023-02-28T02:54:13;8.10;67.40
68217;DHT22;55037;52.354;4.992;2023-02-28T02:56:45;8.10;67.50
68217;DHT22;55037;52.354;4.992;2023-02-28T02:59:17;8.10;67.60
68217;DHT22;55037;52.354;4.992;2023-02-28T03:01:52;8.10;67.70
68217;DHT22;55037;52.354;4.992;2023-02-28T03:04:22;8.00;67.70
68217;DHT22;55037;52.354;4.992;2023-02-28T03:06:53;8.00;67.70
68217;DHT22;55037;52.354;4.992;2023-02-28T03:09:22;8.00;67.80
68217;DHT22;55037;52.354;4.992;2023-02-28T03:11:52;7.90;67.60
68217;DHT22;55037;52.354;4.992;2023-02-28T03:25:29;7.70;67.30
68217;DHT22;55037;52.354;4.992;2023-02-28T03:28:04;7.70;66.90
68217;DHT22;55037;52.354;4.992;2023-02-28T03:33:47;7.50;66.40
68217;DHT22;55037;52.354;4.992;2023-02-28T03:36:31;7.50;66.30
68217;DHT22;55037;52.354;4.992;2023-02-28T03:39:06;7.50;66.20
68217;DHT22;55037;52.354;4.992;2023-02-28T03:42:05;7.50;66.10
68217;DHT22;55037;52.354;4.992;2023-02-28T03:47:12;7.50;65.90
68217;DHT22;55037;52.354;4.992;2023-02-28T03:49:46;7.50;65.80
68217;DHT22;55037;52.354;4.992;2023-02-28T03:52:16;7.40;65.70
68217;DHT22;55037;52.354;4.992;2023-02-28T03:54:47;7.40;65.70
68217;DHT22;55037;52.354;4.992;2023-02-28T03:57:57;7.40;65.80
68217;DHT22;55037;52.354;4.992;2023-02-28T04:00:29;7.30;66.10
68217;DHT22;55037;52.354;4.992;2023-02-28T04:02:58;7.20;66.20
68217;DHT22;55037;52.354;4.992;2023-02-28T04:05:26;7.10;66.40
68217;DHT22;55037;52.354;4.992;2023-02-28T04:07:59;7.10;66.70
68217;DHT22;55037;52.354;4.992;2023-02-28T04:10:29;7.10;67.00
68217;DHT22;55037;52.354;4.992;2023-02-28T04:12:57;7.00;67.10
68217;DHT22;55037;52.354;4.992;2023-02-28T04:15:24;7.00;67.20
68217;DHT22;55037;52.354;4.992;2023-02-28T04:17:51;7.00;67.40
68217;DHT22;55037;52.354;4.992;2023-02-28T04:20:19;7.00;67.50
68217;DHT22;55037;52.354;4.992;2023-02-28T04:22:46;7.00;67.60
68217;DHT22;55037;52.354;4.992;2023-02-28T04:25:13;7.00;67.60
68217;DHT22;55037;52.354;4.992;2023-02-28T04:27:40;7.00;67.70
68217;DHT22;55037;52.354;4.992;2023-02-28T04:30:08;7.00;67.70
68217;DHT22;55037;52.354;4.992;2023-02-28T04:32:35;7.00;67.70
68217;DHT22;55037;52.354;4.992;2023-02-28T04:35:03;7.00;67.60
68217;DHT22;55037;52.354;4.992;2023-02-28T04:37:30;7.10;67.60
68217;DHT22;55037;52.354;4.992;2023-02-28T04:40:01;7.10;67.50
68217;DHT22;55037;52.354;4.992;2023-02-28T04:42:29;7.10;67.50
68217;DHT22;55037;52.354;4.992;2023-02-28T04:45:03;7.10;67.50
68217;DHT22;55037;52.354;4.992;2023-02-28T04:47:30;7.10;67.50
68217;DHT22;55037;52.354;4.992;2023-02-28T04:49:57;7.10;67.50
68217;DHT22;55037;52.354;4.992;2023-02-28T04:52:24;7.10;67.30
68217;DHT22;55037;52.354;4.992;2023-02-28T04:54:53;7.10;67.50
68217;DHT22;55037;52.354;4.992;2023-02-28T04:57:21;7.10;67.50
68217;DHT22;55037;52.354;4.992;2023-02-28T04:59:48;7.10;67.50
68217;DHT22;55037;52.354;4.992;2023-02-28T05:02:15;7.00;67.40
68217;DHT22;55037;52.354;4.992;2023-02-28T05:04:42;7.10;67.50
68217;DHT22;55037;52.354;4.992;2023-02-28T05:07:10;7.00;67.40
68217;DHT22;55037;52.354;4.992;2023-02-28T05:09:37;7.00;67.20
68217;DHT22;55037;52.354;4.992;2023-02-28T05:12:04;7.00;67.10
68217;DHT22;55037;52.354;4.992;2023-02-28T05:14:31;7.00;67.40
68217;DHT22;55037;52.354;4.992;2023-02-28T05:16:59;7.00;67.30
68217;DHT22;55037;52.354;4.992;2023-02-28T05:19:26;7.00;67.30
68217;DHT22;55037;52.354;4.992;2023-02-28T05:21:55;7.00;67.40
68217;DHT22;55037;52.354;4.992;2023-02-28T05:24:22;7.10;67.20
68217;DHT22;55037;52.354;4.992;2023-02-28T05:26:52;7.00;66.90
68217;DHT22;55037;52.354;4.992;2023-02-28T05:29:20;7.00;67.10
68217;DHT22;55037;52.354;4.992;2023-02-28T05:31:47;6.90;67.40
68217;DHT22;55037;52.354;4.992;2023-02-28T05:34:15;6.60;68.70
68217;DHT22;55037;52.354;4.992;2023-02-28T05:36:43;6.40;69.70
68217;DHT22;55037;52.354;4.992;2023-02-28T05:39:10;6.20;70.50
68217;DHT22;55037;52.354;4.992;2023-02-28T05:41:41;6.10;71.00
68217;DHT22;55037;52.354;4.992;2023-02-28T05:44:09;6.00;71.70
68217;DHT22;55037;52.354;4.992;2023-02-28T05:46:36;5.90;72.50
68217;DHT22;55037;52.354;4.992;2023-02-28T05:49:03;5.80;72.70
68217;DHT22;55037;52.354;4.992;2023-02-28T05:51:31;5.80;72.90
68217;DHT22;55037;52.354;4.992;2023-02-28T05:54:00;5.70;73.10
68217;DHT22;55037;52.354;4.992;2023-02-28T05:56:28;5.70;73.90
68217;DHT22;55037;52.354;4.992;2023-02-28T05:58:55;5.60;74.80
68217;DHT22;55037;52.354;4.992;2023-02-28T06:01:36;5.50;75.30
68217;DHT22;55037;52.354;4.992;2023-02-28T06:04:06;5.40;75.60
68217;DHT22;55037;52.354;4.992;2023-02-28T06:06:33;5.40;75.70
68217;DHT22;55037;52.354;4.992;2023-02-28T06:09:04;5.40;76.00
68217;DHT22;55037;52.354;4.992;2023-02-28T06:11:32;5.40;76.30
68217;DHT22;55037;52.354;4.992;2023-02-28T06:14:00;5.30;76.80
68217;DHT22;55037;52.354;4.992;2023-02-28T06:16:29;5.20;77.00
68217;DHT22;55037;52.354;4.992;2023-02-28T06:18:58;5.20;77.60
68217;DHT22;55037;52.354;4.992;2023-02-28T06:21:27;5.20;77.60
68217;DHT22;55037;52.354;4.992;2023-02-28T06:23:56;5.30;77.40
68217;DHT22;55037;52.354;4.992;2023-02-28T06:26:24;5.20;78.70
68217;DHT22;55037;52.354;4.992;2023-02-28T06:28:52;5.20;77.90
68217;DHT22;55037;52.354;4.992;2023-02-28T06:31:19;5.10;78.10
68217;DHT22;55037;52.354;4.992;2023-02-28T06:33:47;5.00;78.60
68217;DHT22;55037;52.354;4.992;2023-02-28T06:36:15;5.00;79.10
68217;DHT22;55037;52.354;4.992;2023-02-28T06:38:43;5.00;79.30
68217;DHT22;55037;52.354;4.992;2023-02-28T06:41:11;4.90;79.30
68217;DHT22;55037;52.354;4.992;2023-02-28T06:43:41;4.80;79.40
68217;DHT22;55037;52.354;4.992;2023-02-28T06:46:12;4.60;79.70
68217;DHT22;55037;52.354;4.992;2023-02-28T06:48:40;4.40;79.60
68217;DHT22;55037;52.354;4.992;2023-02-28T06:51:16;4.30;80.40
68217;DHT22;55037;52.354;4.992;2023-02-28T06:53:44;4.10;81.00
68217;DHT22;55037;52.354;4.992;2023-02-28T06:56:13;4.00;81.90
68217;DHT22;55037;52.354;4.992;2023-02-28T06:58:41;3.90;82.50
68217;DHT22;55037;52.354;4.992;2023-02-28T07:01:11;3.80;83.30
68217;DHT22;55037;52.354;4.992;2023-02-28T07:03:38;3.90;83.40
68217;DHT22;55037;52.354;4.992;2023-02-28T07:06:05;3.80;83.20
68217;DHT22;55037;52.354;4.992;2023-02-28T07:08:33;3.80;82.80
68217;DHT22;55037;52.354;4.992;2023-02-28T07:11:01;3.60;82.40
68217;DHT22;55037;52.354;4.992;2023-02-28T07:13:29;3.50;83.10
68217;DHT22;55037;52.354;4.992;2023-02-28T07:16:04;3.40;83.60
68217;DHT22;55037;52.354;4.992;2023-02-28T07:18:32;3.40;84.00
68217;DHT22;55037;52.354;4.992;2023-02-28T07:21:02;3.40;84.20
68217;DHT22;55037;52.354;4.992;2023-02-28T07:23:29;3.40;84.80
68217;DHT22;55037;52.354;4.992;2023-02-28T07:25:57;3.50;84.80
68217;DHT22;55037;52.354;4.992;2023-02-28T07:28:24;3.40;84.30
68217;DHT22;55037;52.354;4.992;2023-02-28T07:30:52;3.40;84.80
68217;DHT22;55037;52.354;4.992;2023-02-28T07:33:19;3.40;84.80
68217;DHT22;55037;52.354;4.992;2023-02-28T07:35:46;3.40;84.80
68217;DHT22;55037;52.354;4.992;2023-02-28T07:38:13;3.30;84.80
68217;DHT22;55037;52.354;4.992;2023-02-28T07:40:41;3.20;85.40
68217;DHT22;55037;52.354;4.992;2023-02-28T07:43:08;3.10;85.80
68217;DHT22;55037;52.354;4.992;2023-02-28T07:45:35;3.10;86.40
68217;DHT22;55037;52.354;4.992;2023-02-28T07:48:03;3.00;86.80
68217;DHT22;55037;52.354;4.992;2023-02-28T07:50:30;3.10;87.30
68217;DHT22;55037;52.354;4.992;2023-02-28T07:52:59;3.10;87.40
68217;DHT22;55037;52.354;4.992;2023-02-28T07:55:26;3.10;87.50
68217;DHT22;55037;52.354;4.992;2023-02-28T07:57:54;3.20;87.70
68217;DHT22;55037;52.354;4.992;2023-02-28T08:00:21;3.20;87.80
68217;DHT22;55037;52.354;4.992;2023-02-28T08:02:49;3.20;87.80
68217;DHT22;55037;52.354;4.992;2023-02-28T08:05:16;3.30;88.10
68217;DHT22;55037;52.354;4.992;2023-02-28T08:07:49;3.40;88.40
68217;DHT22;55037;52.354;4.992;2023-02-28T08:10:16;3.50;88.20
68217;DHT22;55037;52.354;4.992;2023-02-28T08:12:44;3.50;88.00
68217;DHT22;55037;52.354;4.992;2023-02-28T08:15:11;3.70;88.70
68217;DHT22;55037;52.354;4.992;2023-02-28T08:17:38;3.80;88.40
68217;DHT22;55037;52.354;4.992;2023-02-28T08:20:07;3.90;88.50
68217;DHT22;55037;52.354;4.992;2023-02-28T08:22:34;4.00;88.50
68217;DHT22;55037;52.354;4.992;2023-02-28T08:25:01;4.10;88.70
68217;DHT22;55037;52.354;4.992;2023-02-28T08:27:29;4.20;89.00
68217;DHT22;55037;52.354;4.992;2023-02-28T08:29:56;4.30;88.50
68217;DHT22;55037;52.354;4.992;2023-02-28T08:32:23;4.40;88.20
68217;DHT22;55037;52.354;4.992;2023-02-28T08:34:56;4.40;88.20
68217;DHT22;55037;52.354;4.992;2023-02-28T08:37:24;4.50;88.30
68217;DHT22;55037;52.354;4.992;2023-02-28T08:39:51;4.60;89.30
68217;DHT22;55037;52.354;4.992;2023-02-28T08:42:23;5.50;90.10
68217;DHT22;55037;52.354;4.992;2023-02-28T08:44:50;5.10;89.60
68217;DHT22;55037;52.354;4.992;2023-02-28T08:47:17;5.30;89.70
68217;DHT22;55037;52.354;4.992;2023-02-28T08:49:45;5.40;88.20
68217;DHT22;55037;52.354;4.992;2023-02-28T08:52:12;5.40;87.80
68217;DHT22;55037;52.354;4.992;2023-02-28T08:54:39;5.30;87.40
68217;DHT22;55037;52.354;4.992;2023-02-28T08:57:06;5.30;88.00
68217;DHT22;55037;52.354;4.992;2023-02-28T08:59:33;5.40;88.50
68217;DHT22;55037;52.354;4.992;2023-02-28T09:02:01;5.40;88.60
68217;DHT22;55037;52.354;4.992;2023-02-28T09:04:28;5.40;88.60
68217;DHT22;55037;52.354;4.992;2023-02-28T09:06:58;5.50;88.50
68217;DHT22;55037;52.354;4.992;2023-02-28T09:09:25;5.50;88.60
68217;DHT22;55037;52.354;4.992;2023-02-28T09:11:52;5.60;89.00
68217;DHT22;55037;52.354;4.992;2023-02-28T09:14:22;5.70;89.30
68217;DHT22;55037;52.354;4.992;2023-02-28T09:16:49;5.90;89.60
68217;DHT22;55037;52.354;4.992;2023-02-28T09:19:16;6.20;89.70
68217;DHT22;55037;52.354;4.992;2023-02-28T09:21:43;6.40;89.30
68217;DHT22;55037;52.354;4.992;2023-02-28T09:24:11;6.50;88.70
68217;DHT22;55037;52.354;4.992;2023-02-28T09:26:41;6.70;88.80
68217;DHT22;55037;52.354;4.992;2023-02-28T09:29:21;6.90;88.50
68217;DHT22;55037;52.354;4.992;2023-02-28T09:31:49;7.00;88.50
68217;DHT22;55037;52.354;4.992;2023-02-28T09:34:17;7.00;87.70
68217;DHT22;55037;52.354;4.992;2023-02-28T09:36:44;7.00;87.90
68217;DHT22;55037;52.354;4.992;2023-02-28T09:39:13;7.00;88.00
68217;DHT22;55037;52.354;4.992;2023-02-28T09:41:49;7.00;88.00
68217;DHT22;55037;52.354;4.992;2023-02-28T09:44:42;7.20;89.50
68217;DHT22;55037;52.354;4.992;2023-02-28T09:49:59;7.40;88.70
68217;DHT22;55037;52.354;4.992;2023-02-28T09:52:30;7.50;88.90
68217;DHT22;55037;52.354;4.992;2023-02-28T09:55:33;7.60;88.50
68217;DHT22;55037;52.354;4.992;2023-02-28T09:58:53;7.70;88.00
68217;DHT22;55037;52.354;4.992;2023-02-28T10:01:30;7.70;87.90
68217;DHT22;55037;52.354;4.992;2023-02-28T10:04:03;7.70;88.10
68217;DHT22;55037;52.354;4.992;2023-02-28T10:06:41;7.70;88.10
68217;DHT22;55037;52.354;4.992;2023-02-28T10:09:17;7.80;87.50
68217;DHT22;55037;52.354;4.992;2023-02-28T10:11:45;7.80;86.80
68217;DHT22;55037;52.354;4.992;2023-02-28T10:14:29;7.70;86.70
68217;DHT22;55037;52.354;4.992;2023-02-28T10:17:09;7.70;88.00
68217;DHT22;55037;52.354;4.992;2023-02-28T10:20:07;7.90;88.50
68217;DHT22;55037;52.354;4.992;2023-02-28T10:25:25;7.90;87.20
68217;DHT22;55037;52.354;4.992;2023-02-28T10:28:16;8.00;87.90
68217;DHT22;55037;52.354;4.992;2023-02-28T10:30:50;8.10;87.20
68217;DHT22;55037;52.354;4.992;2023-02-28T10:33:38;8.40;86.90
68217;DHT22;55037;52.354;4.992;2023-02-28T10:36:05;8.70;82.40
68217;DHT22;55037;52.354;4.992;2023-02-28T10:38:37;8.70;83.10
68217;DHT22;55037;52.354;4.992;2023-02-28T10:41:31;8.70;82.90
68217;DHT22;55037;52.354;4.992;2023-02-28T10:44:22;8.70;82.60
68217;DHT22;55037;52.354;4.992;2023-02-28T10:46:53;8.30;82.30
68217;DHT22;55037;52.354;4.992;2023-02-28T10:49:23;8.70;81.20
68217;DHT22;55037;52.354;4.992;2023-02-28T10:51:56;8.80;80.10
68217;DHT22;55037;52.354;4.992;2023-02-28T10:54:34;9.40;82.00
68217;DHT22;55037;52.354;4.992;2023-02-28T10:57:21;10.70;79.60
68217;DHT22;55037;52.354;4.992;2023-02-28T10:59:53;11.30;77.80
68217;DHT22;55037;52.354;4.992;2023-02-28T11:02:36;11.60;74.90
68217;DHT22;55037;52.354;4.992;2023-02-28T11:08:14;12.90;75.60
68217;DHT22;55037;52.354;4.992;2023-02-28T11:11:03;13.00;71.50
68217;DHT22;55037;52.354;4.992;2023-02-28T11:13:36;13.10;72.90
68217;DHT22;55037;52.354;4.992;2023-02-28T11:16:09;12.80;68.20
68217;DHT22;55037;52.354;4.992;2023-02-28T11:21:04;12.50;72.00
68217;DHT22;55037;52.354;4.992;2023-02-28T11:23:34;12.60;74.00
68217;DHT22;55037;52.354;4.992;2023-02-28T11:26:04;12.70;73.60
68217;DHT22;55037;52.354;4.992;2023-02-28T11:28:33;12.70;73.40
68217;DHT22;55037;52.354;4.992;2023-02-28T11:33:51;12.70;74.20
68217;DHT22;55037;52.354;4.992;2023-02-28T11:36:28;12.80;74.30
68217;DHT22;55037;52.354;4.992;2023-02-28T11:39:10;13.20;75.70
68217;DHT22;55037;52.354;4.992;2023-02-28T11:47:00;19.40;64.40
68217;DHT22;55037;52.354;4.992;2023-02-28T11:57:57;28.60;43.90
68217;DHT22;55037;52.354;4.992;2023-02-28T12:03:22;33.90;34.90
68217;DHT22;55037;52.354;4.992;2023-02-28T12:06:18;35.00;32.90
68217;DHT22;55037;52.354;4.992;2023-02-28T12:20:24;37.70;29.10
68217;DHT22;55037;52.354;4.992;2023-02-28T12:26:56;38.00;28.90
68217;DHT22;55037;52.354;4.992;2023-02-28T12:28:54;38.30;27.80
68217;DHT22;55037;52.354;4.992;2023-02-28T12:31:31;38.60;27.10
68217;DHT22;55037;52.354;4.992;2023-02-28T12:34:13;39.00;26.90
68217;DHT22;55037;52.354;4.992;2023-02-28T12:36:43;39.40;27.40
68217;DHT22;55037;52.354;4.992;2023-02-28T12:39:26;40.00;26.20
68217;DHT22;55037;52.354;4.992;2023-02-28T12:42:09;40.00;26.60
68217;DHT22;55037;52.354;4.992;2023-02-28T12:44:46;40.10;25.80
68217;DHT22;55037;52.354;4.992;2023-02-28T12:47:17;40.10;25.90
68217;DHT22;55037;52.354;4.992;2023-02-28T12:50:00;40.40;25.10
68217;DHT22;55037;52.354;4.992;2023-02-28T12:52:56;40.30;24.80
68217;DHT22;55037;52.354;4.992;2023-02-28T12:56:02;40.10;25.90
68217;DHT22;55037;52.354;4.992;2023-02-28T13:01:34;40.10;25.30
68217;DHT22;55037;52.354;4.992;2023-02-28T13:10:10;39.80;26.40
68217;DHT22;55037;52.354;4.992;2023-02-28T13:12:50;39.90;25.20
68217;DHT22;55037;52.354;4.992;2023-02-28T13:15:26;39.70;25.10
68217;DHT22;55037;52.354;4.992;2023-02-28T13:17:58;39.80;25.30
68217;DHT22;55037;52.354;4.992;2023-02-28T13:20:36;40.00;24.20
68217;DHT22;55037;52.354;4.992;2023-02-28T13:24:08;39.60;24.60
68217;DHT22;55037;52.354;4.992;2023-02-28T13:26:18;39.30;26.10
68217;DHT22;55037;52.354;4.992;2023-02-28T13:31:20;38.90;25.40
68217;DHT22;55037;52.354;4.992;2023-02-28T13:36:29;38.70;25.10
68217;DHT22;55037;52.354;4.992;2023-02-28T13:38:59;38.20;25.00
68217;DHT22;55037;52.354;4.992;2023-02-28T13:49:32;36.50;25.70
68217;DHT22;55037;52.354;4.992;2023-02-28T14:06:28;34.30;28.00
68217;DHT22;55037;52.354;4.992;2023-02-28T14:09:16;34.20;28.00
68217;DHT22;55037;52.354;4.992;2023-02-28T14:11:45;34.00;27.90
68217;DHT22;55037;52.354;4.992;2023-02-28T14:17:07;33.30;28.70
68217;DHT22;55037;52.354;4.992;2023-02-28T14:19:37;32.70;28.40
68217;DHT22;55037;52.354;4.992;2023-02-28T14:28:34;31.20;30.00
68217;DHT22;55037;52.354;4.992;2023-02-28T14:36:40;26.90;35.60
68217;DHT22;55037;52.354;4.992;2023-02-28T14:39:18;26.60;35.90
68217;DHT22;55037;52.354;4.992;2023-02-28T14:41:47;26.40;35.30
68217;DHT22;55037;52.354;4.992;2023-02-28T14:44:20;26.00;35.60
68217;DHT22;55037;52.354;4.992;2023-02-28T14:47:24;25.60;36.00
68217;DHT22;55037;52.354;4.992;2023-02-28T14:49:45;25.40;37.30
68217;DHT22;55037;52.354;4.992;2023-02-28T14:54:55;25.00;37.30
68217;DHT22;55037;52.354;4.992;2023-02-28T14:57:28;24.70;37.10
68217;DHT22;55037;52.354;4.992;2023-02-28T15:02:42;23.60;38.50
68217;DHT22;55037;52.354;4.992;2023-02-28T15:07:39;22.60;39.50
68217;DHT22;55037;52.354;4.992;2023-02-28T15:10:26;22.10;40.60
68217;DHT22;55037;52.354;4.992;2023-02-28T15:15:48;21.50;41.90
68217;DHT22;55037;52.354;4.992;2023-02-28T15:18:45;21.10;42.10
68217;DHT22;55037;52.354;4.992;2023-02-28T15:21:15;20.70;42.30
68217;DHT22;55037;52.354;4.992;2023-02-28T15:24:21;20.30;43.70
68217;DHT22;55037;52.354;4.992;2023-02-28T15:26:59;19.90;45.70
68217;DHT22;55037;52.354;4.992;2023-02-28T15:29:29;19.80;45.20
68217;DHT22;55037;52.354;4.992;2023-02-28T15:32:05;19.70;45.50
68217;DHT22;55037;52.354;4.992;2023-02-28T15:34:43;19.60;45.20
68217;DHT22;55037;52.354;4.992;2023-02-28T15:37:45;19.20;45.20
68217;DHT22;55037;52.354;4.992;2023-02-28T15:43:12;18.60;46.90
68217;DHT22;55037;52.354;4.992;2023-02-28T15:48:44;18.30;48.60
68217;DHT22;55037;52.354;4.992;2023-02-28T15:51:17;18.20;47.90
68217;DHT22;55037;52.354;4.992;2023-02-28T15:53:50;17.90;50.20
68217;DHT22;55037;52.354;4.992;2023-02-28T15:56:20;17.80;49.10
68217;DHT22;55037;52.354;4.992;2023-02-28T15:58:49;17.70;49.50
68217;DHT22;55037;52.354;4.992;2023-02-28T16:01:21;17.60;49.40
68217;DHT22;55037;52.354;4.992;2023-02-28T16:03:53;17.50;49.40
68217;DHT22;55037;52.354;4.992;2023-02-28T16:08:54;17.10;50.50
68217;DHT22;55037;52.354;4.992;2023-02-28T16:11:21;16.80;51.10
68217;DHT22;55037;52.354;4.992;2023-02-28T16:13:50;16.60;51.60
68217;DHT22;55037;52.354;4.992;2023-02-28T16:16:20;16.40;52.00
68217;DHT22;55037;52.354;4.992;2023-02-28T16:18:48;16.20;52.90
68217;DHT22;55037;52.354;4.992;2023-02-28T16:21:16;16.00;53.70
68217;DHT22;55037;52.354;4.992;2023-02-28T16:23:43;15.80;53.70
68217;DHT22;55037;52.354;4.992;2023-02-28T16:26:22;15.50;54.70
68217;DHT22;55037;52.354;4.992;2023-02-28T16:28:51;15.30;54.80
68217;DHT22;55037;52.354;4.992;2023-02-28T16:31:19;15.00;55.90
68217;DHT22;55037;52.354;4.992;2023-02-28T16:33:47;14.80;55.90
68217;DHT22;55037;52.354;4.992;2023-02-28T16:36:16;14.50;55.70
68217;DHT22;55037;52.354;4.992;2023-02-28T16:38:44;14.20;56.80
68217;DHT22;55037;52.354;4.992;2023-02-28T16:41:18;14.00;57.90
68217;DHT22;55037;52.354;4.992;2023-02-28T16:43:48;13.70;58.70
68217;DHT22;55037;52.354;4.992;2023-02-28T16:46:16;13.50;58.70
68217;DHT22;55037;52.354;4.992;2023-02-28T16:48:45;13.30;58.40
68217;DHT22;55037;52.354;4.992;2023-02-28T16:51:14;12.90;59.70
68217;DHT22;55037;52.354;4.992;2023-02-28T16:53:42;12.60;60.90
68217;DHT22;55037;52.354;4.992;2023-02-28T16:56:23;12.20;61.90
68217;DHT22;55037;52.354;4.992;2023-02-28T16:58:51;11.80;62.50
68217;DHT22;55037;52.354;4.992;2023-02-28T17:01:18;11.50;64.20
68217;DHT22;55037;52.354;4.992;2023-02-28T17:03:49;11.20;65.10
68217;DHT22;55037;52.354;4.992;2023-02-28T17:06:20;10.90;65.80
68217;DHT22;55037;52.354;4.992;2023-02-28T17:08:50;10.60;66.50
68217;DHT22;55037;52.354;4.992;2023-02-28T17:11:18;10.30;67.00
68217;DHT22;55037;52.354;4.992;2023-02-28T17:13:47;9.90;67.60
68217;DHT22;55037;52.354;4.992;2023-02-28T17:16:32;9.50;68.50
68217;DHT22;55037;52.354;4.992;2023-02-28T17:19:03;9.10;69.40
68217;DHT22;55037;52.354;4.992;2023-02-28T17:21:31;8.80;70.60
68217;DHT22;55037;52.354;4.992;2023-02-28T17:24:00;8.60;71.20
68217;DHT22;55037;52.354;4.992;2023-02-28T17:26:27;8.40;72.10
68217;DHT22;55037;52.354;4.992;2023-02-28T17:28:56;8.10;72.70
68217;DHT22;55037;52.354;4.992;2023-02-28T17:31:25;7.90;73.20
68217;DHT22;55037;52.354;4.992;2023-02-28T17:33:53;7.70;73.70
68217;DHT22;55037;52.354;4.992;2023-02-28T17:36:24;7.60;74.30
68217;DHT22;55037;52.354;4.992;2023-02-28T17:38:53;7.40;75.00
68217;DHT22;55037;52.354;4.992;2023-02-28T17:41:22;7.30;75.50
68217;DHT22;55037;52.354;4.992;2023-02-28T17:43:49;7.20;76.90
68217;DHT22;55037;52.354;4.992;2023-02-28T17:46:20;7.10;76.30
68217;DHT22;55037;52.354;4.992;2023-02-28T17:48:49;7.00;76.80
68217;DHT22;55037;52.354;4.992;2023-02-28T17:51:18;6.90;77.20
68217;DHT22;55037;52.354;4.992;2023-02-28T17:53:46;6.80;77.60
68217;DHT22;55037;52.354;4.992;2023-02-28T17:56:16;6.70;77.60
68217;DHT22;55037;52.354;4.992;2023-02-28T17:58:44;6.70;78.20
68217;DHT22;55037;52.354;4.992;2023-02-28T18:01:12;6.60;78.50
68217;DHT22;55037;52.354;4.992;2023-02-28T18:03:39;6.60;78.70
68217;DHT22;55037;52.354;4.992;2023-02-28T18:06:13;6.50;78.50
68217;DHT22;55037;52.354;4.992;2023-02-28T18:08:41;6.40;79.00
68217;DHT22;55037;52.354;4.992;2023-02-28T18:11:08;6.40;79.30
68217;DHT22;55037;52.354;4.992;2023-02-28T18:13:48;6.30;79.60
68217;DHT22;55037;52.354;4.992;2023-02-28T18:16:17;6.20;79.80
68217;DHT22;55037;52.354;4.992;2023-02-28T18:18:45;6.10;79.90
68217;DHT22;55037;52.354;4.992;2023-02-28T18:21:14;6.10;80.00
68217;DHT22;55037;52.354;4.992;2023-02-28T18:23:43;6.00;80.10
68217;DHT22;55037;52.354;4.992;2023-02-28T18:26:19;5.90;80.30
68217;DHT22;55037;52.354;4.992;2023-02-28T18:28:46;5.90;80.60
68217;DHT22;55037;52.354;4.992;2023-02-28T18:31:16;5.80;80.80
68217;DHT22;55037;52.354;4.992;2023-02-28T18:33:47;5.70;81.00
68217;DHT22;55037;52.354;4.992;2023-02-28T18:36:15;5.70;81.20
68217;DHT22;55037;52.354;4.992;2023-02-28T18:38:42;5.60;81.40
68217;DHT22;55037;52.354;4.992;2023-02-28T18:41:10;5.60;81.50
68217;DHT22;55037;52.354;4.992;2023-02-28T18:43:37;5.60;81.70
68217;DHT22;55037;52.354;4.992;2023-02-28T18:46:11;5.50;81.70